sensor_id;sensor_type;location;lat;lon;timestamp;temperature;humidity
2855;DHT22;1435;49.472;10.940;2023-09-12T00:01:12;19.40;99.90
2855;DHT22;1435;49.472;10.940;2023-09-12T00:06:13;19.40;99.90
2855;DHT22;1435;49.472;10.940;2023-09-12T00:11:16;19.30;99.90
2855;DHT22;1435;49.472;10.940;2023-09-12T00:16:19;19.20;99.90
2855;DHT22;1435;49.472;10.940;2023-09-12T00:21:21;19.20;99.90
2855;DHT22;1435;49.472;10.940;2023-09-12T00:26:22;19.10;99.90
2855;DHT22;1435;49.472;10.940;2023-09-12T00:31:26;19.00;99.90
2855;DHT22;1435;49.472;10.940;2023-09-12T00:36:27;19.00;99.90
2855;DHT22;1435;49.472;10.940;2023-09-12T00:41:29;19.00;99.90
2855;DHT22;1435;49.472;10.940;2023-09-12T00:46:33;19.00;99.90
2855;DHT22;1435;49.472;10.940;2023-09-12T00:51:36;18.90;99.90
2855;DHT22;1435;49.472;10.940;2023-09-12T00:56:38;18.90;99.90
2855;DHT22;1435;49.472;10.940;2023-09-12T01:01:42;18.80;99.90
2855;DHT22;1435;49.472;10.940;2023-09-12T01:06:44;18.80;99.90
2855;DHT22;1435;49.472;10.940;2023-09-12T01:11:46;18.70;99.90
2855;DHT22;1435;49.472;10.940;2023-09-12T01:16:49;18.70;99.90
2855;DHT22;1435;49.472;10.940;2023-09-12T01:22:33;18.60;99.90
2855;DHT22;1435;49.472;10.940;2023-09-12T01:27:41;18.50;99.90
2855;DHT22;1435;49.472;10.940;2023-09-12T01:32:43;18.50;99.90
2855;DHT22;1435;49.472;10.940;2023-09-12T01:37:46;18.40;99.90
2855;DHT22;1435;49.472;10.940;2023-09-12T01:42:50;18.40;99.90
2855;DHT22;1435;49.472;10.940;2023-09-12T01:47:54;18.30;99.90
2855;DHT22;1435;49.472;10.940;2023-09-12T01:52:56;18.20;99.90
2855;DHT22;1435;49.472;10.940;2023-09-12T01:58:00;18.20;99.90
2855;DHT22;1435;49.472;10.940;2023-09-12T02:03:03;18.20;99.90
2855;DHT22;1435;49.472;10.940;2023-09-12T02:08:05;18.10;99.90
2855;DHT22;1435;49.472;10.940;2023-09-12T02:13:08;18.10;99.90
2855;DHT22;1435;49.472;10.940;2023-09-12T02:18:09;18.00;99.90
2855;DHT22;1435;49.472;10.940;2023-09-12T02:23:11;18.00;99.90
2855;DHT22;1435;49.472;10.940;2023-09-12T02:28:14;17.90;99.90
2855;DHT22;1435;49.472;10.940;2023-09-12T02:33:16;17.80;99.90
2855;DHT22;1435;49.472;10.940;2023-09-12T02:38:18;17.80;99.90
2855;DHT22;1435;49.472;10.940;2023-09-12T02:43:21;17.80;99.90
2855;DHT22;1435;49.472;10.940;2023-09-12T02:48:23;17.80;99.90
2855;DHT22;1435;49.472;10.940;2023-09-12T02:53:25;17.80;99.90
2855;DHT22;1435;49.472;10.940;2023-09-12T02:58:28;17.70;99.90
2855;DHT22;1435;49.472;10.940;2023-09-12T03:03:29;17.70;99.90
2855;DHT22;1435;49.472;10.940;2023-09-12T03:08:31;17.70;99.90
2855;DHT22;1435;49.472;10.940;2023-09-12T03:13:34;17.70;99.90
2855;DHT22;1435;49.472;10.940;2023-09-12T03:18:36;17.60;99.90
2855;DHT22;1435;49.472;10.940;2023-09-12T03:23:38;17.60;99.90
2855;DHT22;1435;49.472;10.940;2023-09-12T03:28:41;17.50;99.90
2855;DHT22;1435;49.472;10.940;2023-09-12T03:33:43;17.40;99.90
2855;DHT22;1435;49.472;10.940;2023-09-12T03:38:48;17.40;99.90
2855;DHT22;1435;49.472;10.940;2023-09-12T03:43:52;17.30;99.90
2855;DHT22;1435;49.472;10.940;2023-09-12T03:48:54;17.30;99.90
2855;DHT22;1435;49.472;10.940;2023-09-12T03:53:56;17.30;99.90
2855;DHT22;1435;49.472;10.940;2023-09-12T03:58:59;17.20;99.90
2855;DHT22;1435;49.472;10.940;2023-09-12T04:04:00;17.20;99.90
2855;DHT22;1435;49.472;10.940;2023-09-12T04:09:02;17.20;99.90
2855;DHT22;1435;49.472;10.940;2023-09-12T04:14:06;17.10;99.90
2855;DHT22;1435;49.472;10.940;2023-09-12T04:19:08;17.10;99.90
2855;DHT22;1435;49.472;10.940;2023-09-12T04:24:09;17.00;99.90
2855;DHT22;1435;49.472;10.940;2023-09-12T04:29:12;17.00;99.90
2855;DHT22;1435;49.472;10.940;2023-09-12T04:34:14;16.90;99.90
2855;DHT22;1435;49.472;10.940;2023-09-12T04:39:16;16.90;99.90
2855;DHT22;1435;49.472;10.940;2023-09-12T04:44:19;16.90;99.90
2855;DHT22;1435;49.472;10.940;2023-09-12T04:49:21;16.90;99.90
2855;DHT22;1435;49.472;10.940;2023-09-12T04:54:23;16.90;99.90
2855;DHT22;1435;49.472;10.940;2023-09-12T04:59:26;16.80;99.90
2855;DHT22;1435;49.472;10.940;2023-09-12T05:04:27;16.80;99.90
2855;DHT22;1435;49.472;10.940;2023-09-12T05:09:29;16.80;99.90
2855;DHT22;1435;49.472;10.940;2023-09-12T05:14:32;16.80;99.90
2855;DHT22;1435;49.472;10.940;2023-09-12T05:19:35;16.70;99.90
2855;DHT22;1435;49.472;10.940;2023-09-12T05:24:37;16.70;99.90
2855;DHT22;1435;49.472;10.940;2023-09-12T05:29:40;16.70;99.90
2855;DHT22;1435;49.472;10.940;2023-09-12T05:34:41;16.70;99.90
2855;DHT22;1435;49.472;10.940;2023-09-12T05:39:43;16.70;99.90
2855;DHT22;1435;49.472;10.940;2023-09-12T05:44:46;16.70;99.90
2855;DHT22;1435;49.472;10.940;2023-09-12T05:49:50;16.80;99.90
2855;DHT22;1435;49.472;10.940;2023-09-12T05:54:51;16.80;99.90
2855;DHT22;1435;49.472;10.940;2023-09-12T05:59:54;16.80;99.90
2855;DHT22;1435;49.472;10.940;2023-09-12T06:04:56;16.90;99.90
2855;DHT22;1435;49.472;10.940;2023-09-12T06:09:58;16.90;99.90
2855;DHT22;1435;49.472;10.940;2023-09-12T06:15:01;17.00;99.90
2855;DHT22;1435;49.472;10.940;2023-09-12T06:20:03;17.00;99.90
2855;DHT22;1435;49.472;10.940;2023-09-12T06:25:07;17.10;99.90
2855;DHT22;1435;49.472;10.940;2023-09-12T06:30:11;17.10;99.90
2855;DHT22;1435;49.472;10.940;2023-09-12T06:35:13;17.10;99.90
2855;DHT22;1435;49.472;10.940;2023-09-12T06:40:15;17.20;99.90
2855;DHT22;1435;49.472;10.940;2023-09-12T06:45:18;17.20;99.90
2855;DHT22;1435;49.472;10.940;2023-09-12T06:50:20;17.20;99.90
2855;DHT22;1435;49.472;10.940;2023-09-12T06:55:22;17.30;99.90
2855;DHT22;1435;49.472;10.940;2023-09-12T07:00:25;17.40;99.90
2855;DHT22;1435;49.472;10.940;2023-09-12T07:05:27;17.50;99.90
2855;DHT22;1435;49.472;10.940;2023-09-12T07:10:29;17.50;99.90
2855;DHT22;1435;49.472;10.940;2023-09-12T07:15:33;17.50;99.90
2855;DHT22;1435;49.472;10.940;2023-09-12T07:20:36;17.60;99.90
2855;DHT22;1435;49.472;10.940;2023-09-12T07:25:39;17.70;99.90
2855;DHT22;1435;49.472;10.940;2023-09-12T07:30:45;17.80;99.90
2855;DHT22;1435;49.472;10.940;2023-09-12T07:35:47;17.90;99.90
2855;DHT22;1435;49.472;10.940;2023-09-12T07:40:49;18.10;99.90
2855;DHT22;1435;49.472;10.940;2023-09-12T07:45:56;18.30;99.90
2855;DHT22;1435;49.472;10.940;2023-09-12T07:50:58;18.50;99.90
2855;DHT22;1435;49.472;10.940;2023-09-12T07:55:59;18.60;99.90
2855;DHT22;1435;49.472;10.940;2023-09-12T08:01:06;18.80;99.90
2855;DHT22;1435;49.472;10.940;2023-09-12T08:06:08;19.00;99.90
2855;DHT22;1435;49.472;10.940;2023-09-12T08:11:09;19.20;99.90
2855;DHT22;1435;49.472;10.940;2023-09-12T08:16:13;19.50;99.90
2855;DHT22;1435;49.472;10.940;2023-09-12T08:21:14;19.70;99.90
2855;DHT22;1435;49.472;10.940;2023-09-12T08:26:16;19.80;99.90
2855;DHT22;1435;49.472;10.940;2023-09-12T08:31:19;20.00;99.90
2855;DHT22;1435;49.472;10.940;2023-09-12T08:36:21;20.10;99.90
2855;DHT22;1435;49.472;10.940;2023-09-12T08:41:23;20.30;99.90
2855;DHT22;1435;49.472;10.940;2023-09-12T08:46:26;20.50;99.90
2855;DHT22;1435;49.472;10.940;2023-09-12T08:51:27;20.60;99.90
2855;DHT22;1435;49.472;10.940;2023-09-12T08:56:31;20.90;99.90
2855;DHT22;1435;49.472;10.940;2023-09-12T09:01:35;21.10;99.90
2855;DHT22;1435;49.472;10.940;2023-09-12T09:06:40;21.20;99.90
2855;DHT22;1435;49.472;10.940;2023-09-12T09:11:42;21.30;99.90
2855;DHT22;1435;49.472;10.940;2023-09-12T09:16:45;21.60;99.90
2855;DHT22;1435;49.472;10.940;2023-09-12T09:21:47;21.70;99.90
2855;DHT22;1435;49.472;10.940;2023-09-12T09:26:50;21.80;99.90
2855;DHT22;1435;49.472;10.940;2023-09-12T09:31:53;22.00;99.90
2855;DHT22;1435;49.472;10.940;2023-09-12T09:36:56;22.10;99.90
2855;DHT22;1435;49.472;10.940;2023-09-12T09:41:58;22.20;99.90
2855;DHT22;1435;49.472;10.940;2023-09-12T09:47:01;22.40;99.90
2855;DHT22;1435;49.472;10.940;2023-09-12T09:52:04;22.60;99.90
2855;DHT22;1435;49.472;10.940;2023-09-12T09:57:06;22.80;99.90
2855;DHT22;1435;49.472;10.940;2023-09-12T10:02:16;22.90;99.90
2855;DHT22;1435;49.472;10.940;2023-09-12T10:07:22;23.00;99.90
2855;DHT22;1435;49.472;10.940;2023-09-12T10:12:24;23.20;99.90
2855;DHT22;1435;49.472;10.940;2023-09-12T10:17:35;23.30;99.90
2855;DHT22;1435;49.472;10.940;2023-09-12T10:22:40;23.40;99.90
2855;DHT22;1435;49.472;10.940;2023-09-12T10:27:45;23.50;99.90
2855;DHT22;1435;49.472;10.940;2023-09-12T10:32:48;23.60;99.90
2855;DHT22;1435;49.472;10.940;2023-09-12T10:37:51;23.90;99.90
2855;DHT22;1435;49.472;10.940;2023-09-12T10:42:55;24.00;99.90
2855;DHT22;1435;49.472;10.940;2023-09-12T10:47:59;24.20;99.90
2855;DHT22;1435;49.472;10.940;2023-09-12T10:53:11;24.40;99.90
2855;DHT22;1435;49.472;10.940;2023-09-12T10:58:14;24.60;99.90
2855;DHT22;1435;49.472;10.940;2023-09-12T11:03:39;24.80;99.90
2855;DHT22;1435;49.472;10.940;2023-09-12T11:08:41;24.90;99.90
2855;DHT22;1435;49.472;10.940;2023-09-12T11:13:43;25.00;99.90
2855;DHT22;1435;49.472;10.940;2023-09-12T11:19:14;25.00;99.90
2855;DHT22;1435;49.472;10.940;2023-09-12T11:24:17;25.20;99.90
2855;DHT22;1435;49.472;10.940;2023-09-12T11:29:19;25.20;99.90
2855;DHT22;1435;49.472;10.940;2023-09-12T11:34:24;25.40;99.90
2855;DHT22;1435;49.472;10.940;2023-09-12T11:39:29;25.50;99.90
2855;DHT22;1435;49.472;10.940;2023-09-12T11:44:31;25.60;99.90
2855;DHT22;1435;49.472;10.940;2023-09-12T11:49:37;25.70;99.90
2855;DHT22;1435;49.472;10.940;2023-09-12T11:54:39;25.70;99.90
2855;DHT22;1435;49.472;10.940;2023-09-12T11:59:43;25.90;99.90
2855;DHT22;1435;49.472;10.940;2023-09-12T12:04:47;26.00;99.90
2855;DHT22;1435;49.472;10.940;2023-09-12T12:09:50;26.00;99.90
2855;DHT22;1435;49.472;10.940;2023-09-12T12:14:52;26.10;99.90
2855;DHT22;1435;49.472;10.940;2023-09-12T12:19:55;26.20;99.90
2855;DHT22;1435;49.472;10.940;2023-09-12T12:25:05;26.30;99.90
2855;DHT22;1435;49.472;10.940;2023-09-12T12:30:09;26.40;99.90
2855;DHT22;1435;49.472;10.940;2023-09-12T12:35:17;26.50;99.90
2855;DHT22;1435;49.472;10.940;2023-09-12T12:40:18;26.50;99.90
2855;DHT22;1435;49.472;10.940;2023-09-12T12:45:22;26.50;99.90
2855;DHT22;1435;49.472;10.940;2023-09-12T12:50:25;26.70;99.90
2855;DHT22;1435;49.472;10.940;2023-09-12T12:55:27;26.80;99.90
2855;DHT22;1435;49.472;10.940;2023-09-12T13:00:29;26.90;99.90
2855;DHT22;1435;49.472;10.940;2023-09-12T13:05:32;27.00;99.90
2855;DHT22;1435;49.472;10.940;2023-09-12T13:10:34;27.10;99.90
2855;DHT22;1435;49.472;10.940;2023-09-12T13:15:37;27.10;99.90
2855;DHT22;1435;49.472;10.940;2023-09-12T13:20:40;27.20;99.90
2855;DHT22;1435;49.472;10.940;2023-09-12T13:25:42;27.30;99.90
2855;DHT22;1435;49.472;10.940;2023-09-12T13:30:44;27.40;99.90
2855;DHT22;1435;49.472;10.940;2023-09-12T13:35:49;27.60;99.90
2855;DHT22;1435;49.472;10.940;2023-09-12T13:40:51;27.70;99.90
2855;DHT22;1435;49.472;10.940;2023-09-12T13:45:52;27.70;99.90
2855;DHT22;1435;49.472;10.940;2023-09-12T13:50:55;27.80;99.90
2855;DHT22;1435;49.472;10.940;2023-09-12T13:55:57;27.80;99.90
2855;DHT22;1435;49.472;10.940;2023-09-12T14:01:01;27.90;99.90
2855;DHT22;1435;49.472;10.940;2023-09-12T14:06:05;28.00;99.90
2855;DHT22;1435;49.472;10.940;2023-09-12T14:11:07;28.10;99.90
2855;DHT22;1435;49.472;10.940;2023-09-12T14:16:08;28.20;99.90
2855;DHT22;1435;49.472;10.940;2023-09-12T14:21:12;28.20;99.90
2855;DHT22;1435;49.472;10.940;2023-09-12T14:26:13;28.40;99.90
2855;DHT22;1435;49.472;10.940;2023-09-12T14:31:16;28.50;99.90
2855;DHT22;1435;49.472;10.940;2023-09-12T14:36:19;28.50;99.90
2855;DHT22;1435;49.472;10.940;2023-09-12T14:41:20;28.60;99.90
2855;DHT22;1435;49.472;10.940;2023-09-12T14:46:22;28.70;99.90
2855;DHT22;1435;49.472;10.940;2023-09-12T14:51:25;28.80;99.90
2855;DHT22;1435;49.472;10.940;2023-09-12T14:56:27;28.90;99.90
2855;DHT22;1435;49.472;10.940;2023-09-12T15:01:29;29.00;99.90
2855;DHT22;1435;49.472;10.940;2023-09-12T15:06:32;29.10;99.90
2855;DHT22;1435;49.472;10.940;2023-09-12T15:11:33;29.20;99.90
2855;DHT22;1435;49.472;10.940;2023-09-12T15:16:35;29.30;98.50
2855;DHT22;1435;49.472;10.940;2023-09-12T15:21:38;29.30;98.60
2855;DHT22;1435;49.472;10.940;2023-09-12T15:26:40;29.40;99.90
2855;DHT22;1435;49.472;10.940;2023-09-12T15:31:42;29.60;99.40
2855;DHT22;1435;49.472;10.940;2023-09-12T15:36:46;29.70;99.90
2855;DHT22;1435;49.472;10.940;2023-09-12T15:41:48;29.70;99.90
2855;DHT22;1435;49.472;10.940;2023-09-12T15:46:49;29.70;99.90
2855;DHT22;1435;49.472;10.940;2023-09-12T15:51:53;29.70;99.90
2855;DHT22;1435;49.472;10.940;2023-09-12T15:56:54;29.70;99.90
2855;DHT22;1435;49.472;10.940;2023-09-12T16:01:56;29.60;99.90
2855;DHT22;1435;49.472;10.940;2023-09-12T16:06:59;29.40;99.90
2855;DHT22;1435;49.472;10.940;2023-09-12T16:12:01;29.40;99.90
2855;DHT22;1435;49.472;10.940;2023-09-12T16:17:04;29.30;99.90
2855;DHT22;1435;49.472;10.940;2023-09-12T16:22:07;29.20;99.90
2855;DHT22;1435;49.472;10.940;2023-09-12T16:27:10;29.10;99.90
2855;DHT22;1435;49.472;10.940;2023-09-12T16:32:12;29.00;99.90
2855;DHT22;1435;49.472;10.940;2023-09-12T16:37:15;28.80;99.90
2855;DHT22;1435;49.472;10.940;2023-09-12T16:42:17;28.60;99.90
2855;DHT22;1435;49.472;10.940;2023-09-12T16:47:19;28.40;99.90
2855;DHT22;1435;49.472;10.940;2023-09-12T16:52:22;28.30;99.90
2855;DHT22;1435;49.472;10.940;2023-09-12T16:57:24;28.10;99.90
2855;DHT22;1435;49.472;10.940;2023-09-12T17:02:25;27.90;99.90
2855;DHT22;1435;49.472;10.940;2023-09-12T17:07:28;27.70;99.90
2855;DHT22;1435;49.472;10.940;2023-09-12T17:12:30;27.60;99.90
2855;DHT22;1435;49.472;10.940;2023-09-12T17:17:32;27.50;99.90
2855;DHT22;1435;49.472;10.940;2023-09-12T17:22:35;27.40;99.90
2855;DHT22;1435;49.472;10.940;2023-09-12T17:27:37;27.30;99.90
2855;DHT22;1435;49.472;10.940;2023-09-12T17:32:38;27.10;99.90
2855;DHT22;1435;49.472;10.940;2023-09-12T17:37:41;27.00;99.90
2855;DHT22;1435;49.472;10.940;2023-09-12T17:42:43;26.90;99.90
2855;DHT22;1435;49.472;10.940;2023-09-12T17:47:45;26.80;99.90
2855;DHT22;1435;49.472;10.940;2023-09-12T17:52:48;26.70;99.90
2855;DHT22;1435;49.472;10.940;2023-09-12T17:57:50;26.40;99.90
2855;DHT22;1435;49.472;10.940;2023-09-12T18:02:52;26.40;99.90
2855;DHT22;1435;49.472;10.940;2023-09-12T18:07:55;26.30;99.90
2855;DHT22;1435;49.472;10.940;2023-09-12T18:12:58;26.20;99.90
2855;DHT22;1435;49.472;10.940;2023-09-12T18:18:00;26.10;99.90
2855;DHT22;1435;49.472;10.940;2023-09-12T18:23:04;26.00;99.90
2855;DHT22;1435;49.472;10.940;2023-09-12T18:28:06;25.90;99.90
2855;DHT22;1435;49.472;10.940;2023-09-12T18:33:07;25.80;99.90
2855;DHT22;1435;49.472;10.940;2023-09-12T18:38:11;25.70;99.90
2855;DHT22;1435;49.472;10.940;2023-09-12T18:43:12;25.60;99.90
2855;DHT22;1435;49.472;10.940;2023-09-12T18:48:14;25.50;99.90
2855;DHT22;1435;49.472;10.940;2023-09-12T18:53:18;25.50;99.90
2855;DHT22;1435;49.472;10.940;2023-09-12T18:58:21;25.40;99.90
2855;DHT22;1435;49.472;10.940;2023-09-12T19:03:22;25.30;99.90
2855;DHT22;1435;49.472;10.940;2023-09-12T19:08:25;25.20;99.90
2855;DHT22;1435;49.472;10.940;2023-09-12T19:13:27;25.20;99.90
2855;DHT22;1435;49.472;10.940;2023-09-12T19:18:29;25.10;99.90
2855;DHT22;1435;49.472;10.940;2023-09-12T19:23:32;25.00;99.90
2855;DHT22;1435;49.472;10.940;2023-09-12T19:28:34;24.90;99.90
2855;DHT22;1435;49.472;10.940;2023-09-12T19:33:36;24.90;99.90
2855;DHT22;1435;49.472;10.940;2023-09-12T19:38:39;24.80;99.90
2855;DHT22;1435;49.472;10.940;2023-09-12T19:43:41;24.80;99.90
2855;DHT22;1435;49.472;10.940;2023-09-12T19:48:42;24.70;99.90
2855;DHT22;1435;49.472;10.940;2023-09-12T19:53:45;24.60;99.90
2855;DHT22;1435;49.472;10.940;2023-09-12T19:58:47;24.50;99.90
2855;DHT22;1435;49.472;10.940;2023-09-12T20:03:49;24.30;99.90
2855;DHT22;1435;49.472;10.940;2023-09-12T20:08:52;24.20;99.90
2855;DHT22;1435;49.472;10.940;2023-09-12T20:13:54;24.10;99.90
2855;DHT22;1435;49.472;10.940;2023-09-12T20:18:56;24.10;99.90
2855;DHT22;1435;49.472;10.940;2023-09-12T20:23:59;24.10;99.90
2855;DHT22;1435;49.472;10.940;2023-09-12T20:29:01;24.10;99.90
2855;DHT22;1435;49.472;10.940;2023-09-12T20:34:03;24.20;99.90
2855;DHT22;1435;49.472;10.940;2023-09-12T20:39:23;24.00;99.90
2855;DHT22;1435;49.472;10.940;2023-09-12T20:44:26;24.00;99.90
2855;DHT22;1435;49.472;10.940;2023-09-12T20:49:31;24.10;99.90
2855;DHT22;1435;49.472;10.940;2023-09-12T20:54:34;24.10;99.90
2855;DHT22;1435;49.472;10.940;2023-09-12T20:59:36;24.20;99.90
2855;DHT22;1435;49.472;10.940;2023-09-12T21:04:38;24.10;99.90
2855;DHT22;1435;49.472;10.940;2023-09-12T21:09:41;24.10;99.90
2855;DHT22;1435;49.472;10.940;2023-09-12T21:14:43;24.10;99.90
2855;DHT22;1435;49.472;10.940;2023-09-12T21:19:45;24.10;99.90
2855;DHT22;1435;49.472;10.940;2023-09-12T21:24:49;24.10;99.90
2855;DHT22;1435;49.472;10.940;2023-09-12T21:29:52;24.10;99.90
2855;DHT22;1435;49.472;10.940;2023-09-12T21:35:09;24.00;99.90
2855;DHT22;1435;49.472;10.940;2023-09-12T21:40:14;24.00;99.90
2855;DHT22;1435;49.472;10.940;2023-09-12T21:45:16;23.90;99.90
2855;DHT22;1435;49.472;10.940;2023-09-12T21:50:18;23.80;99.90
2855;DHT22;1435;49.472;10.940;2023-09-12T21:55:22;23.70;99.90
2855;DHT22;1435;49.472;10.940;2023-09-12T22:00:23;23.70;99.90
2855;DHT22;1435;49.472;10.940;2023-09-12T22:05:28;23.60;99.90
2855;DHT22;1435;49.472;10.940;2023-09-12T22:10:32;23.50;99.90
2855;DHT22;1435;49.472;10.940;2023-09-12T22:15:34;23.40;99.90
2855;DHT22;1435;49.472;10.940;2023-09-12T22:20:41;23.30;99.90
2855;DHT22;1435;49.472;10.940;2023-09-12T22:25:44;23.20;99.90
2855;DHT22;1435;49.472;10.940;2023-09-12T22:30:46;23.10;99.90
2855;DHT22;1435;49.472;10.940;2023-09-12T22:35:52;23.10;99.90
2855;DHT22;1435;49.472;10.940;2023-09-12T22:40:55;22.90;99.90
2855;DHT22;1435;49.472;10.940;2023-09-12T22:45:57;22.80;99.90
2855;DHT22;1435;49.472;10.940;2023-09-12T22:50:59;22.70;99.90
2855;DHT22;1435;49.472;10.940;2023-09-12T22:56:02;22.60;99.90
2855;DHT22;1435;49.472;10.940;2023-09-12T23:01:04;22.40;99.90
2855;DHT22;1435;49.472;10.940;2023-09-12T23:06:07;22.30;99.90
2855;DHT22;1435;49.472;10.940;2023-09-12T23:11:10;22.30;99.90
2855;DHT22;1435;49.472;10.940;2023-09-12T23:16:12;22.10;99.90
2855;DHT22;1435;49.472;10.940;2023-09-12T23:21:14;22.10;99.90
2855;DHT22;1435;49.472;10.940;2023-09-12T23:26:17;22.00;99.90
2855;DHT22;1435;49.472;10.940;2023-09-12T23:31:19;21.90;99.90
2855;DHT22;1435;49.472;10.940;2023-09-12T23:36:21;21.70;99.90
2855;DHT22;1435;49.472;10.940;2023-09-12T23:41:24;21.50;99.90
2855;DHT22;1435;49.472;10.940;2023-09-12T23:46:26;21.40;99.90
2855;DHT22;1435;49.472;10.940;2023-09-12T23:51:28;21.50;99.90
2855;DHT22;1435;49.472;10.940;2023-09-12T23:56:31;21.50;99.90
